Salina Municipal Airport

Airport
ICAO code: 
KSLN
Summary
ICAO Region: 
NAM
Territory: 
Location: 
Salina, Kansas,
Coordinates: 
Aerial View: 
38° 47' 29" N, 97° 39' 2.002" W
Airport CFIT: 
Altimeter Temperature Error Correction
Metar
Observation
KSLN 020753Z AUTO 16005KT 10SM CLR 08/M02 A2999 RMK AO2 SLP151 T00831017
Station
Salina, Salina Municipal Airport
Date/Time
2021-12-02 07:53:00
Wind direction
160°
Wind speed
05 kts
Lowest cloud amount
n/a
Temperature
8.3°C
Dew point
-1.7°C
Humidity
49%
Weather condition
n/a

Description

Salina Regional Airport is a public use airport located 6 km southwest of the central business district of Salina, a city in Saline County, Kansas.

Climatology

Salina lies in the transition zone between North America's humid subtropical climate (Köppen climate classification Cfa) and humid continental climate (Köppen climate classification Dfa) and experiences hot, humid summers and cold, dry winters.

Runways

Designator Length Width Surface Rops
4/22 1112 23 ASP Yes/Yes
18/36 1311 23 ASP Yes/Yes
12/30 1984 30 ASP Yes/Yes
17/35 3749 46 ASP Yes/Yes
Airport map: 
Aerial View: 

SKYbrary Partners:

Safety knowledge contributed by: